sensor_id;sensor_type;location;lat;lon;timestamp;temperature;humidity
8459;DHT22;4266;48.816;9.154;2023-04-03T00:01:21;3.50;93.30
8459;DHT22;4266;48.816;9.154;2023-04-03T00:03:47;3.50;93.20
8459;DHT22;4266;48.816;9.154;2023-04-03T00:06:13;3.50;93.40
8459;DHT22;4266;48.816;9.154;2023-04-03T00:08:38;3.50;93.40
8459;DHT22;4266;48.816;9.154;2023-04-03T00:11:04;3.40;93.30
8459;DHT22;4266;48.816;9.154;2023-04-03T00:13:30;3.40;93.40
8459;DHT22;4266;48.816;9.154;2023-04-03T00:15:56;3.40;93.50
8459;DHT22;4266;48.816;9.154;2023-04-03T00:18:22;3.40;93.50
8459;DHT22;4266;48.816;9.154;2023-04-03T00:20:47;3.40;93.40
8459;DHT22;4266;48.816;9.154;2023-04-03T00:23:13;3.40;93.30
8459;DHT22;4266;48.816;9.154;2023-04-03T00:25:39;3.40;93.50
8459;DHT22;4266;48.816;9.154;2023-04-03T00:28:04;3.40;93.40
8459;DHT22;4266;48.816;9.154;2023-04-03T00:30:30;3.50;93.70
8459;DHT22;4266;48.816;9.154;2023-04-03T00:32:57;3.50;93.00
8459;DHT22;4266;48.816;9.154;2023-04-03T00:35:23;3.40;93.60
8459;DHT22;4266;48.816;9.154;2023-04-03T00:37:50;3.40;93.60
8459;DHT22;4266;48.816;9.154;2023-04-03T00:40:15;3.50;93.60
8459;DHT22;4266;48.816;9.154;2023-04-03T00:42:41;3.40;93.30
8459;DHT22;4266;48.816;9.154;2023-04-03T00:45:22;3.40;93.10
8459;DHT22;4266;48.816;9.154;2023-04-03T00:47:38;3.30;93.60
8459;DHT22;4266;48.816;9.154;2023-04-03T00:50:04;3.40;93.50
8459;DHT22;4266;48.816;9.154;2023-04-03T00:52:30;3.30;93.50
8459;DHT22;4266;48.816;9.154;2023-04-03T00:54:57;3.40;93.60
8459;DHT22;4266;48.816;9.154;2023-04-03T00:57:21;3.40;93.50
8459;DHT22;4266;48.816;9.154;2023-04-03T00:59:49;3.30;93.80
8459;DHT22;4266;48.816;9.154;2023-04-03T01:02:12;3.30;93.60
8459;DHT22;4266;48.816;9.154;2023-04-03T01:04:41;3.30;94.00
8459;DHT22;4266;48.816;9.154;2023-04-03T01:07:08;3.30;94.00
8459;DHT22;4266;48.816;9.154;2023-04-03T01:09:33;3.30;93.90
8459;DHT22;4266;48.816;9.154;2023-04-03T01:14:37;3.40;93.70
8459;DHT22;4266;48.816;9.154;2023-04-03T01:17:03;3.30;94.00
8459;DHT22;4266;48.816;9.154;2023-04-03T01:19:30;3.30;94.00
8459;DHT22;4266;48.816;9.154;2023-04-03T01:22:05;3.30;94.60
8459;DHT22;4266;48.816;9.154;2023-04-03T01:24:34;3.30;94.20
8459;DHT22;4266;48.816;9.154;2023-04-03T01:26:59;3.20;94.20
8459;DHT22;4266;48.816;9.154;2023-04-03T01:29:24;3.20;94.10
8459;DHT22;4266;48.816;9.154;2023-04-03T01:31:53;3.30;93.70
8459;DHT22;4266;48.816;9.154;2023-04-03T01:34:19;3.20;93.70
8459;DHT22;4266;48.816;9.154;2023-04-03T01:36:44;3.20;93.90
8459;DHT22;4266;48.816;9.154;2023-04-03T01:39:10;3.20;94.30
8459;DHT22;4266;48.816;9.154;2023-04-03T01:41:37;3.20;94.00
8459;DHT22;4266;48.816;9.154;2023-04-03T01:44:04;3.20;93.70
8459;DHT22;4266;48.816;9.154;2023-04-03T01:46:30;3.20;94.00
8459;DHT22;4266;48.816;9.154;2023-04-03T01:48:56;3.10;93.90
8459;DHT22;4266;48.816;9.154;2023-04-03T01:51:22;3.10;94.00
8459;DHT22;4266;48.816;9.154;2023-04-03T01:53:47;3.10;94.10
8459;DHT22;4266;48.816;9.154;2023-04-03T01:56:13;3.10;94.00
8459;DHT22;4266;48.816;9.154;2023-04-03T01:58:40;3.10;94.20
8459;DHT22;4266;48.816;9.154;2023-04-03T02:01:05;3.00;94.20
8459;DHT22;4266;48.816;9.154;2023-04-03T02:03:31;3.10;94.00
8459;DHT22;4266;48.816;9.154;2023-04-03T02:05:57;3.10;94.20
8459;DHT22;4266;48.816;9.154;2023-04-03T02:08:23;3.00;93.60
8459;DHT22;4266;48.816;9.154;2023-04-03T02:10:49;3.10;93.60
8459;DHT22;4266;48.816;9.154;2023-04-03T02:13:15;3.10;93.60
8459;DHT22;4266;48.816;9.154;2023-04-03T02:15:40;3.10;93.60
8459;DHT22;4266;48.816;9.154;2023-04-03T02:18:06;3.20;93.80
8459;DHT22;4266;48.816;9.154;2023-04-03T02:20:31;3.20;93.60
8459;DHT22;4266;48.816;9.154;2023-04-03T02:22:57;3.20;93.10
8459;DHT22;4266;48.816;9.154;2023-04-03T02:25:23;3.10;92.80
8459;DHT22;4266;48.816;9.154;2023-04-03T02:27:48;3.20;93.20
8459;DHT22;4266;48.816;9.154;2023-04-03T02:30:15;3.20;92.80
8459;DHT22;4266;48.816;9.154;2023-04-03T02:32:41;3.20;92.80
8459;DHT22;4266;48.816;9.154;2023-04-03T02:35:07;3.20;92.90
8459;DHT22;4266;48.816;9.154;2023-04-03T02:37:34;3.10;92.80
8459;DHT22;4266;48.816;9.154;2023-04-03T02:40:00;3.20;92.60
8459;DHT22;4266;48.816;9.154;2023-04-03T02:42:26;3.20;92.60
8459;DHT22;4266;48.816;9.154;2023-04-03T02:44:52;3.20;92.80
8459;DHT22;4266;48.816;9.154;2023-04-03T02:47:17;3.20;92.40
8459;DHT22;4266;48.816;9.154;2023-04-03T02:49:43;3.20;92.10
8459;DHT22;4266;48.816;9.154;2023-04-03T02:52:10;3.30;92.50
8459;DHT22;4266;48.816;9.154;2023-04-03T02:54:35;3.20;92.50
8459;DHT22;4266;48.816;9.154;2023-04-03T02:57:01;3.20;92.20
8459;DHT22;4266;48.816;9.154;2023-04-03T02:59:27;3.20;92.00
8459;DHT22;4266;48.816;9.154;2023-04-03T03:01:54;3.10;91.70
8459;DHT22;4266;48.816;9.154;2023-04-03T03:04:20;3.20;91.50
8459;DHT22;4266;48.816;9.154;2023-04-03T03:06:46;3.20;91.60
8459;DHT22;4266;48.816;9.154;2023-04-03T03:09:12;3.20;91.10
8459;DHT22;4266;48.816;9.154;2023-04-03T03:11:39;3.20;90.80
8459;DHT22;4266;48.816;9.154;2023-04-03T03:14:04;3.20;91.00
8459;DHT22;4266;48.816;9.154;2023-04-03T03:16:30;3.20;91.00
8459;DHT22;4266;48.816;9.154;2023-04-03T03:18:56;3.20;90.90
8459;DHT22;4266;48.816;9.154;2023-04-03T03:21:21;3.20;90.80
8459;DHT22;4266;48.816;9.154;2023-04-03T03:23:48;3.10;90.80
8459;DHT22;4266;48.816;9.154;2023-04-03T03:26:14;3.20;91.00
8459;DHT22;4266;48.816;9.154;2023-04-03T03:28:40;3.20;91.00
8459;DHT22;4266;48.816;9.154;2023-04-03T03:31:07;3.10;90.80
8459;DHT22;4266;48.816;9.154;2023-04-03T03:33:33;3.10;90.90
8459;DHT22;4266;48.816;9.154;2023-04-03T03:35:59;3.10;90.80
8459;DHT22;4266;48.816;9.154;2023-04-03T03:38:25;3.10;91.00
8459;DHT22;4266;48.816;9.154;2023-04-03T03:40:51;3.10;91.00
8459;DHT22;4266;48.816;9.154;2023-04-03T03:43:17;3.20;91.10
8459;DHT22;4266;48.816;9.154;2023-04-03T03:45:43;3.20;91.10
8459;DHT22;4266;48.816;9.154;2023-04-03T03:48:08;3.20;91.00
8459;DHT22;4266;48.816;9.154;2023-04-03T03:50:34;3.10;90.90
8459;DHT22;4266;48.816;9.154;2023-04-03T03:53:00;3.20;91.10
8459;DHT22;4266;48.816;9.154;2023-04-03T03:55:26;3.30;91.20
8459;DHT22;4266;48.816;9.154;2023-04-03T03:57:52;3.20;91.10
8459;DHT22;4266;48.816;9.154;2023-04-03T04:00:18;3.20;90.90
8459;DHT22;4266;48.816;9.154;2023-04-03T04:02:44;3.20;91.10
8459;DHT22;4266;48.816;9.154;2023-04-03T04:05:09;3.20;90.70
8459;DHT22;4266;48.816;9.154;2023-04-03T04:07:35;3.20;91.00
8459;DHT22;4266;48.816;9.154;2023-04-03T04:10:01;3.20;90.70
8459;DHT22;4266;48.816;9.154;2023-04-03T04:12:27;3.20;90.50
8459;DHT22;4266;48.816;9.154;2023-04-03T04:14:54;3.20;90.90
8459;DHT22;4266;48.816;9.154;2023-04-03T04:17:19;3.20;90.90
8459;DHT22;4266;48.816;9.154;2023-04-03T04:19:45;3.20;90.90
8459;DHT22;4266;48.816;9.154;2023-04-03T04:22:12;3.30;91.10
8459;DHT22;4266;48.816;9.154;2023-04-03T04:24:37;3.20;91.00
8459;DHT22;4266;48.816;9.154;2023-04-03T04:27:03;3.30;90.70
8459;DHT22;4266;48.816;9.154;2023-04-03T04:29:29;3.20;90.70
8459;DHT22;4266;48.816;9.154;2023-04-03T04:31:54;3.20;90.60
8459;DHT22;4266;48.816;9.154;2023-04-03T04:34:20;3.20;90.50
8459;DHT22;4266;48.816;9.154;2023-04-03T04:36:47;3.20;90.50
8459;DHT22;4266;48.816;9.154;2023-04-03T04:39:14;3.30;90.30
8459;DHT22;4266;48.816;9.154;2023-04-03T04:41:40;3.30;90.30
8459;DHT22;4266;48.816;9.154;2023-04-03T04:44:06;3.30;90.10
8459;DHT22;4266;48.816;9.154;2023-04-03T04:46:32;3.30;90.10
8459;DHT22;4266;48.816;9.154;2023-04-03T04:48:58;3.30;88.60
8459;DHT22;4266;48.816;9.154;2023-04-03T04:51:23;3.30;88.40
8459;DHT22;4266;48.816;9.154;2023-04-03T04:53:49;3.30;87.40
8459;DHT22;4266;48.816;9.154;2023-04-03T04:56:16;3.40;86.80
8459;DHT22;4266;48.816;9.154;2023-04-03T04:58:41;3.30;86.70
8459;DHT22;4266;48.816;9.154;2023-04-03T05:01:08;3.40;86.40
8459;DHT22;4266;48.816;9.154;2023-04-03T05:03:33;3.40;85.60
8459;DHT22;4266;48.816;9.154;2023-04-03T05:05:59;3.40;86.10
8459;DHT22;4266;48.816;9.154;2023-04-03T05:08:25;3.40;86.80
8459;DHT22;4266;48.816;9.154;2023-04-03T05:10:51;3.40;86.80
8459;DHT22;4266;48.816;9.154;2023-04-03T05:13:17;3.50;86.70
8459;DHT22;4266;48.816;9.154;2023-04-03T05:15:43;3.40;86.60
8459;DHT22;4266;48.816;9.154;2023-04-03T05:18:08;3.40;86.90
8459;DHT22;4266;48.816;9.154;2023-04-03T05:20:35;3.40;87.40
8459;DHT22;4266;48.816;9.154;2023-04-03T05:23:01;3.40;87.40
8459;DHT22;4266;48.816;9.154;2023-04-03T05:25:26;3.40;87.90
8459;DHT22;4266;48.816;9.154;2023-04-03T05:27:52;3.40;88.00
8459;DHT22;4266;48.816;9.154;2023-04-03T05:30:18;3.40;87.80
8459;DHT22;4266;48.816;9.154;2023-04-03T05:32:44;3.40;87.90
8459;DHT22;4266;48.816;9.154;2023-04-03T05:35:09;3.40;87.50
8459;DHT22;4266;48.816;9.154;2023-04-03T05:37:35;3.40;88.10
8459;DHT22;4266;48.816;9.154;2023-04-03T05:40:01;3.50;87.80
8459;DHT22;4266;48.816;9.154;2023-04-03T05:42:26;3.50;87.40
8459;DHT22;4266;48.816;9.154;2023-04-03T05:44:52;3.50;87.20
8459;DHT22;4266;48.816;9.154;2023-04-03T05:47:18;3.50;87.20
8459;DHT22;4266;48.816;9.154;2023-04-03T05:49:44;3.60;87.50
8459;DHT22;4266;48.816;9.154;2023-04-03T05:52:23;3.50;87.00
8459;DHT22;4266;48.816;9.154;2023-04-03T05:54:51;3.50;87.00
8459;DHT22;4266;48.816;9.154;2023-04-03T05:57:16;3.50;87.50
8459;DHT22;4266;48.816;9.154;2023-04-03T05:59:43;3.70;87.30
8459;DHT22;4266;48.816;9.154;2023-04-03T06:02:10;3.70;87.70
8459;DHT22;4266;48.816;9.154;2023-04-03T06:04:35;3.70;87.70
8459;DHT22;4266;48.816;9.154;2023-04-03T06:07:00;3.80;87.20
8459;DHT22;4266;48.816;9.154;2023-04-03T06:09:27;3.80;87.40
8459;DHT22;4266;48.816;9.154;2023-04-03T06:11:52;3.80;86.70
8459;DHT22;4266;48.816;9.154;2023-04-03T06:14:18;4.00;87.80
8459;DHT22;4266;48.816;9.154;2023-04-03T06:16:44;3.90;87.70
8459;DHT22;4266;48.816;9.154;2023-04-03T06:19:10;4.00;87.00
8459;DHT22;4266;48.816;9.154;2023-04-03T06:21:36;3.90;87.20
8459;DHT22;4266;48.816;9.154;2023-04-03T06:24:03;3.90;87.20
8459;DHT22;4266;48.816;9.154;2023-04-03T06:26:28;4.00;87.40
8459;DHT22;4266;48.816;9.154;2023-04-03T06:28:54;4.10;87.40
8459;DHT22;4266;48.816;9.154;2023-04-03T06:31:20;4.10;86.90
8459;DHT22;4266;48.816;9.154;2023-04-03T06:33:45;4.10;87.20
8459;DHT22;4266;48.816;9.154;2023-04-03T06:36:11;4.00;86.70
8459;DHT22;4266;48.816;9.154;2023-04-03T06:38:37;4.10;86.60
8459;DHT22;4266;48.816;9.154;2023-04-03T06:41:03;4.10;86.60
8459;DHT22;4266;48.816;9.154;2023-04-03T06:43:28;4.20;86.80
8459;DHT22;4266;48.816;9.154;2023-04-03T06:45:55;4.20;86.60
8459;DHT22;4266;48.816;9.154;2023-04-03T06:48:20;4.20;86.60
8459;DHT22;4266;48.816;9.154;2023-04-03T06:50:46;4.20;86.80
8459;DHT22;4266;48.816;9.154;2023-04-03T06:53:12;4.20;86.90
8459;DHT22;4266;48.816;9.154;2023-04-03T06:55:38;4.10;86.40
8459;DHT22;4266;48.816;9.154;2023-04-03T06:58:04;4.20;87.30
8459;DHT22;4266;48.816;9.154;2023-04-03T07:00:30;4.10;86.60
8459;DHT22;4266;48.816;9.154;2023-04-03T07:02:55;4.20;86.70
8459;DHT22;4266;48.816;9.154;2023-04-03T07:05:21;4.20;87.00
8459;DHT22;4266;48.816;9.154;2023-04-03T07:07:47;4.30;87.30
8459;DHT22;4266;48.816;9.154;2023-04-03T07:10:13;4.60;87.30
8459;DHT22;4266;48.816;9.154;2023-04-03T07:12:38;4.50;86.50
8459;DHT22;4266;48.816;9.154;2023-04-03T07:15:05;4.40;86.80
8459;DHT22;4266;48.816;9.154;2023-04-03T07:17:32;4.50;86.90
8459;DHT22;4266;48.816;9.154;2023-04-03T07:19:58;4.90;86.70
8459;DHT22;4266;48.816;9.154;2023-04-03T07:22:24;4.90;86.70
8459;DHT22;4266;48.816;9.154;2023-04-03T07:24:50;5.20;85.90
8459;DHT22;4266;48.816;9.154;2023-04-03T07:27:16;5.30;86.10
8459;DHT22;4266;48.816;9.154;2023-04-03T07:29:42;5.30;86.20
8459;DHT22;4266;48.816;9.154;2023-04-03T07:32:08;5.10;86.20
8459;DHT22;4266;48.816;9.154;2023-04-03T07:34:35;5.30;85.90
8459;DHT22;4266;48.816;9.154;2023-04-03T07:37:01;5.40;86.10
8459;DHT22;4266;48.816;9.154;2023-04-03T07:39:27;5.40;86.10
8459;DHT22;4266;48.816;9.154;2023-04-03T07:41:52;5.40;86.20
8459;DHT22;4266;48.816;9.154;2023-04-03T07:44:18;5.60;86.50
8459;DHT22;4266;48.816;9.154;2023-04-03T07:46:44;5.70;85.60
8459;DHT22;4266;48.816;9.154;2023-04-03T07:49:09;6.00;85.20
8459;DHT22;4266;48.816;9.154;2023-04-03T07:51:36;6.40;85.70
8459;DHT22;4266;48.816;9.154;2023-04-03T07:54:02;6.40;85.70
8459;DHT22;4266;48.816;9.154;2023-04-03T07:56:27;6.50;84.40
8459;DHT22;4266;48.816;9.154;2023-04-03T07:58:53;6.50;84.50
8459;DHT22;4266;48.816;9.154;2023-04-03T08:01:19;6.30;83.50
8459;DHT22;4266;48.816;9.154;2023-04-03T08:03:44;6.40;84.10
8459;DHT22;4266;48.816;9.154;2023-04-03T08:06:10;6.70;83.60
8459;DHT22;4266;48.816;9.154;2023-04-03T08:08:36;6.30;82.70
8459;DHT22;4266;48.816;9.154;2023-04-03T08:11:02;6.20;83.30
8459;DHT22;4266;48.816;9.154;2023-04-03T08:13:28;6.50;83.60
8459;DHT22;4266;48.816;9.154;2023-04-03T08:15:54;6.90;83.40
8459;DHT22;4266;48.816;9.154;2023-04-03T08:18:19;6.80;83.30
8459;DHT22;4266;48.816;9.154;2023-04-03T08:20:45;6.80;82.30
8459;DHT22;4266;48.816;9.154;2023-04-03T08:23:11;6.80;81.90
8459;DHT22;4266;48.816;9.154;2023-04-03T08:25:39;7.10;81.10
8459;DHT22;4266;48.816;9.154;2023-04-03T08:28:04;7.10;81.10
8459;DHT22;4266;48.816;9.154;2023-04-03T08:30:30;7.30;81.40
8459;DHT22;4266;48.816;9.154;2023-04-03T08:32:55;7.80;80.20
8459;DHT22;4266;48.816;9.154;2023-04-03T08:35:22;8.30;80.30
8459;DHT22;4266;48.816;9.154;2023-04-03T08:37:48;8.30;80.30
8459;DHT22;4266;48.816;9.154;2023-04-03T08:40:14;8.10;78.20
8459;DHT22;4266;48.816;9.154;2023-04-03T08:42:59;8.70;79.00
8459;DHT22;4266;48.816;9.154;2023-04-03T08:45:33;8.70;78.90
8459;DHT22;4266;48.816;9.154;2023-04-03T08:47:59;9.60;77.70
8459;DHT22;4266;48.816;9.154;2023-04-03T08:50:25;9.00;76.50
8459;DHT22;4266;48.816;9.154;2023-04-03T08:52:48;8.90;76.20
8459;DHT22;4266;48.816;9.154;2023-04-03T08:55:21;9.00;76.30
8459;DHT22;4266;48.816;9.154;2023-04-03T08:57:44;7.90;75.80
8459;DHT22;4266;48.816;9.154;2023-04-03T09:00:18;7.90;75.70
8459;DHT22;4266;48.816;9.154;2023-04-03T09:02:45;7.50;76.30
8459;DHT22;4266;48.816;9.154;2023-04-03T09:05:14;7.50;76.70
8459;DHT22;4266;48.816;9.154;2023-04-03T09:07:43;7.60;76.20
8459;DHT22;4266;48.816;9.154;2023-04-03T09:10:06;7.40;75.20
8459;DHT22;4266;48.816;9.154;2023-04-03T09:12:38;7.30;75.60
8459;DHT22;4266;48.816;9.154;2023-04-03T09:15:09;7.60;77.20
8459;DHT22;4266;48.816;9.154;2023-04-03T09:17:41;8.10;77.00
8459;DHT22;4266;48.816;9.154;2023-04-03T09:20:27;8.10;75.90
8459;DHT22;4266;48.816;9.154;2023-04-03T09:22:50;7.60;74.70
8459;DHT22;4266;48.816;9.154;2023-04-03T09:25:17;7.10;74.30
8459;DHT22;4266;48.816;9.154;2023-04-03T09:27:42;6.80;74.70
8459;DHT22;4266;48.816;9.154;2023-04-03T09:30:15;6.60;74.00
8459;DHT22;4266;48.816;9.154;2023-04-03T09:32:40;6.60;74.00
8459;DHT22;4266;48.816;9.154;2023-04-03T09:35:18;6.50;74.40
8459;DHT22;4266;48.816;9.154;2023-04-03T09:37:43;6.60;73.70
8459;DHT22;4266;48.816;9.154;2023-04-03T09:42:46;6.70;74.00
8459;DHT22;4266;48.816;9.154;2023-04-03T09:45:21;6.60;73.20
8459;DHT22;4266;48.816;9.154;2023-04-03T09:47:37;6.70;73.60
8459;DHT22;4266;48.816;9.154;2023-04-03T09:50:20;6.80;73.10
8459;DHT22;4266;48.816;9.154;2023-04-03T09:52:46;6.90;74.00
8459;DHT22;4266;48.816;9.154;2023-04-03T09:55:14;7.00;74.70
8459;DHT22;4266;48.816;9.154;2023-04-03T09:57:39;6.90;71.60
8459;DHT22;4266;48.816;9.154;2023-04-03T10:00:06;6.90;71.60
8459;DHT22;4266;48.816;9.154;2023-04-03T10:02:35;6.90;72.20
8459;DHT22;4266;48.816;9.154;2023-04-03T10:05:00;6.70;71.90
8459;DHT22;4266;48.816;9.154;2023-04-03T10:07:34;6.80;72.20
8459;DHT22;4266;48.816;9.154;2023-04-03T10:09:59;6.90;71.70
8459;DHT22;4266;48.816;9.154;2023-04-03T10:12:24;7.00;74.00
8459;DHT22;4266;48.816;9.154;2023-04-03T10:14:56;6.90;72.90
8459;DHT22;4266;48.816;9.154;2023-04-03T10:17:28;6.90;72.70
8459;DHT22;4266;48.816;9.154;2023-04-03T10:19:57;7.10;72.50
8459;DHT22;4266;48.816;9.154;2023-04-03T10:25:18;7.40;72.70
8459;DHT22;4266;48.816;9.154;2023-04-03T10:27:59;7.40;72.70
8459;DHT22;4266;48.816;9.154;2023-04-03T10:31:14;7.20;73.40
8459;DHT22;4266;48.816;9.154;2023-04-03T10:33:49;7.20;73.50
8459;DHT22;4266;48.816;9.154;2023-04-03T10:36:17;7.10;72.50
8459;DHT22;4266;48.816;9.154;2023-04-03T10:39:02;6.60;71.60
8459;DHT22;4266;48.816;9.154;2023-04-03T10:41:40;6.50;72.70
8459;DHT22;4266;48.816;9.154;2023-04-03T10:44:14;6.50;72.70
8459;DHT22;4266;48.816;9.154;2023-04-03T10:46:42;6.80;73.30
8459;DHT22;4266;48.816;9.154;2023-04-03T10:51:59;6.70;72.70
8459;DHT22;4266;48.816;9.154;2023-04-03T10:54:25;6.70;71.50
8459;DHT22;4266;48.816;9.154;2023-04-03T10:56:51;6.70;71.30
8459;DHT22;4266;48.816;9.154;2023-04-03T10:59:28;6.90;72.00
8459;DHT22;4266;48.816;9.154;2023-04-03T11:01:56;6.60;69.20
8459;DHT22;4266;48.816;9.154;2023-04-03T11:04:21;6.60;69.20
8459;DHT22;4266;48.816;9.154;2023-04-03T11:06:49;6.80;69.70
8459;DHT22;4266;48.816;9.154;2023-04-03T11:09:21;6.80;68.60
8459;DHT22;4266;48.816;9.154;2023-04-03T11:11:44;6.70;67.70
8459;DHT22;4266;48.816;9.154;2023-04-03T11:14:14;6.90;67.10
8459;DHT22;4266;48.816;9.154;2023-04-03T11:16:41;7.00;66.50
8459;DHT22;4266;48.816;9.154;2023-04-03T11:19:18;7.20;65.00
8459;DHT22;4266;48.816;9.154;2023-04-03T11:21:51;7.10;64.80
8459;DHT22;4266;48.816;9.154;2023-04-03T11:24:16;6.80;63.50
8459;DHT22;4266;48.816;9.154;2023-04-03T11:26:41;6.90;64.50
8459;DHT22;4266;48.816;9.154;2023-04-03T11:29:09;6.80;63.90
8459;DHT22;4266;48.816;9.154;2023-04-03T11:32:01;6.70;64.10
8459;DHT22;4266;48.816;9.154;2023-04-03T11:34:26;6.70;64.10
8459;DHT22;4266;48.816;9.154;2023-04-03T11:36:51;6.70;65.00
8459;DHT22;4266;48.816;9.154;2023-04-03T11:39:22;6.60;65.40
8459;DHT22;4266;48.816;9.154;2023-04-03T11:41:47;6.90;65.40
8459;DHT22;4266;48.816;9.154;2023-04-03T11:44:29;6.90;65.40
8459;DHT22;4266;48.816;9.154;2023-04-03T11:46:57;6.90;65.20
8459;DHT22;4266;48.816;9.154;2023-04-03T11:52:00;6.90;64.90
8459;DHT22;4266;48.816;9.154;2023-04-03T11:54:36;7.30;65.60
8459;DHT22;4266;48.816;9.154;2023-04-03T11:57:18;7.40;64.80
8459;DHT22;4266;48.816;9.154;2023-04-03T11:59:26;7.30;64.70
8459;DHT22;4266;48.816;9.154;2023-04-03T12:01:54;7.50;64.30
8459;DHT22;4266;48.816;9.154;2023-04-03T12:04:20;7.50;64.60
8459;DHT22;4266;48.816;9.154;2023-04-03T12:06:59;7.40;63.00
8459;DHT22;4266;48.816;9.154;2023-04-03T12:09:33;7.40;62.40
8459;DHT22;4266;48.816;9.154;2023-04-03T12:11:59;7.30;62.00
8459;DHT22;4266;48.816;9.154;2023-04-03T12:14:24;7.30;62.00
8459;DHT22;4266;48.816;9.154;2023-04-03T12:16:49;7.20;61.40
8459;DHT22;4266;48.816;9.154;2023-04-03T12:19:31;7.20;62.80
8459;DHT22;4266;48.816;9.154;2023-04-03T12:22:06;7.60;63.10
8459;DHT22;4266;48.816;9.154;2023-04-03T12:24:32;7.60;63.10
8459;DHT22;4266;48.816;9.154;2023-04-03T12:27:24;7.30;59.50
8459;DHT22;4266;48.816;9.154;2023-04-03T12:29:52;7.20;59.70
8459;DHT22;4266;48.816;9.154;2023-04-03T12:32:26;7.30;60.70
8459;DHT22;4266;48.816;9.154;2023-04-03T12:37:51;7.70;61.60
8459;DHT22;4266;48.816;9.154;2023-04-03T12:40:21;7.90;59.80
8459;DHT22;4266;48.816;9.154;2023-04-03T12:43:02;7.90;59.80
8459;DHT22;4266;48.816;9.154;2023-04-03T12:45:27;7.90;59.80
8459;DHT22;4266;48.816;9.154;2023-04-03T12:47:54;7.60;59.50
8459;DHT22;4266;48.816;9.154;2023-04-03T12:50:27;7.60;59.40
8459;DHT22;4266;48.816;9.154;2023-04-03T12:52:54;7.60;59.70
8459;DHT22;4266;48.816;9.154;2023-04-03T12:55:19;7.80;59.60
8459;DHT22;4266;48.816;9.154;2023-04-03T12:57:43;7.80;59.60
8459;DHT22;4266;48.816;9.154;2023-04-03T13:00:19;7.70;58.50
8459;DHT22;4266;48.816;9.154;2023-04-03T13:02:44;7.70;58.50
8459;DHT22;4266;48.816;9.154;2023-04-03T13:05:13;7.40;58.90
8459;DHT22;4266;48.816;9.154;2023-04-03T13:07:36;7.80;59.20
8459;DHT22;4266;48.816;9.154;2023-04-03T13:10:14;7.70;57.90
8459;DHT22;4266;48.816;9.154;2023-04-03T13:12:46;7.70;57.90
8459;DHT22;4266;48.816;9.154;2023-04-03T13:15:13;7.80;58.70
8459;DHT22;4266;48.816;9.154;2023-04-03T13:17:39;7.90;57.10
8459;DHT22;4266;48.816;9.154;2023-04-03T13:20:10;8.10;57.60
8459;DHT22;4266;48.816;9.154;2023-04-03T13:22:36;8.10;58.20
8459;DHT22;4266;48.816;9.154;2023-04-03T13:25:03;8.10;58.20
8459;DHT22;4266;48.816;9.154;2023-04-03T13:27:28;8.20;58.60
8459;DHT22;4266;48.816;9.154;2023-04-03T13:29:54;7.90;58.00
8459;DHT22;4266;48.816;9.154;2023-04-03T13:32:21;8.00;58.30
8459;DHT22;4266;48.816;9.154;2023-04-03T13:34:45;7.90;58.20
8459;DHT22;4266;48.816;9.154;2023-04-03T13:37:21;8.30;58.10
8459;DHT22;4266;48.816;9.154;2023-04-03T13:39:45;8.20;56.60
8459;DHT22;4266;48.816;9.154;2023-04-03T13:42:16;8.30;56.40
8459;DHT22;4266;48.816;9.154;2023-04-03T13:44:40;8.20;55.70
8459;DHT22;4266;48.816;9.154;2023-04-03T13:47:19;8.50;56.20
8459;DHT22;4266;48.816;9.154;2023-04-03T13:49:45;8.50;54.20
8459;DHT22;4266;48.816;9.154;2023-04-03T13:52:22;8.30;54.40
8459;DHT22;4266;48.816;9.154;2023-04-03T13:54:45;8.60;54.50
8459;DHT22;4266;48.816;9.154;2023-04-03T13:57:14;8.90;53.30
8459;DHT22;4266;48.816;9.154;2023-04-03T13:59:38;9.10;52.70
8459;DHT22;4266;48.816;9.154;2023-04-03T14:02:21;8.90;52.40
8459;DHT22;4266;48.816;9.154;2023-04-03T14:04:49;8.60;52.80
8459;DHT22;4266;48.816;9.154;2023-04-03T14:07:13;8.50;53.80
8459;DHT22;4266;48.816;9.154;2023-04-03T14:09:38;8.30;53.90
8459;DHT22;4266;48.816;9.154;2023-04-03T14:12:06;8.30;53.90
8459;DHT22;4266;48.816;9.154;2023-04-03T14:14:31;8.20;53.40
8459;DHT22;4266;48.816;9.154;2023-04-03T14:16:58;8.20;54.10
8459;DHT22;4266;48.816;9.154;2023-04-03T14:19:24;8.20;54.50
8459;DHT22;4266;48.816;9.154;2023-04-03T14:21:48;8.20;54.10
8459;DHT22;4266;48.816;9.154;2023-04-03T14:24:14;8.00;53.70
8459;DHT22;4266;48.816;9.154;2023-04-03T14:26:40;8.00;53.60
8459;DHT22;4266;48.816;9.154;2023-04-03T14:29:06;7.90;53.00
8459;DHT22;4266;48.816;9.154;2023-04-03T14:31:32;8.00;53.10
8459;DHT22;4266;48.816;9.154;2023-04-03T14:33:58;7.90;53.10
8459;DHT22;4266;48.816;9.154;2023-04-03T14:36:24;7.90;51.20
8459;DHT22;4266;48.816;9.154;2023-04-03T14:38:49;7.90;52.10
8459;DHT22;4266;48.816;9.154;2023-04-03T14:41:17;7.90;52.70
8459;DHT22;4266;48.816;9.154;2023-04-03T14:43:41;7.90;52.20
8459;DHT22;4266;48.816;9.154;2023-04-03T14:46:12;8.10;52.20
8459;DHT22;4266;48.816;9.154;2023-04-03T14:48:36;8.30;52.30
8459;DHT22;4266;48.816;9.154;2023-04-03T14:51:01;8.30;52.30
8459;DHT22;4266;48.816;9.154;2023-04-03T14:53:28;8.50;52.80
8459;DHT22;4266;48.816;9.154;2023-04-03T14:55:54;8.30;51.70
8459;DHT22;4266;48.816;9.154;2023-04-03T14:58:20;8.30;51.40
8459;DHT22;4266;48.816;9.154;2023-04-03T15:00:46;8.40;51.40
8459;DHT22;4266;48.816;9.154;2023-04-03T15:03:16;7.90;51.20
8459;DHT22;4266;48.816;9.154;2023-04-03T15:05:41;7.90;51.20
8459;DHT22;4266;48.816;9.154;2023-04-03T15:08:10;7.80;51.40
8459;DHT22;4266;48.816;9.154;2023-04-03T15:10:33;7.80;51.40
8459;DHT22;4266;48.816;9.154;2023-04-03T15:12:59;8.10;51.70
8459;DHT22;4266;48.816;9.154;2023-04-03T15:15:27;8.10;51.70
8459;DHT22;4266;48.816;9.154;2023-04-03T15:17:51;7.80;50.10
8459;DHT22;4266;48.816;9.154;2023-04-03T15:20:19;7.70;50.80
8459;DHT22;4266;48.816;9.154;2023-04-03T15:22:42;8.00;51.00
8459;DHT22;4266;48.816;9.154;2023-04-03T15:25:08;7.70;50.10
8459;DHT22;4266;48.816;9.154;2023-04-03T15:27:35;7.70;50.80
8459;DHT22;4266;48.816;9.154;2023-04-03T15:30:01;7.70;50.70
8459;DHT22;4266;48.816;9.154;2023-04-03T15:32:27;7.60;50.70
8459;DHT22;4266;48.816;9.154;2023-04-03T15:34:54;7.40;50.40
8459;DHT22;4266;48.816;9.154;2023-04-03T15:37:19;7.40;50.40
8459;DHT22;4266;48.816;9.154;2023-04-03T15:39:45;7.20;50.10
8459;DHT22;4266;48.816;9.154;2023-04-03T15:42:11;7.20;50.80
8459;DHT22;4266;48.816;9.154;2023-04-03T15:44:37;7.10;50.10
8459;DHT22;4266;48.816;9.154;2023-04-03T15:47:02;6.90;49.90
8459;DHT22;4266;48.816;9.154;2023-04-03T15:49:29;6.90;50.10
8459;DHT22;4266;48.816;9.154;2023-04-03T15:51:55;6.80;49.70
8459;DHT22;4266;48.816;9.154;2023-04-03T15:54:20;6.80;49.70
8459;DHT22;4266;48.816;9.154;2023-04-03T15:56:46;7.00;49.60
8459;DHT22;4266;48.816;9.154;2023-04-03T15:59:12;6.90;48.70
8459;DHT22;4266;48.816;9.154;2023-04-03T16:01:38;6.80;49.00
8459;DHT22;4266;48.816;9.154;2023-04-03T16:04:05;6.80;49.30
8459;DHT22;4266;48.816;9.154;2023-04-03T16:06:31;6.80;49.70
8459;DHT22;4266;48.816;9.154;2023-04-03T16:08:58;6.90;49.80
8459;DHT22;4266;48.816;9.154;2023-04-03T16:11:24;6.80;49.70
8459;DHT22;4266;48.816;9.154;2023-04-03T16:13:49;7.00;49.70
8459;DHT22;4266;48.816;9.154;2023-04-03T16:16:15;7.20;50.10
8459;DHT22;4266;48.816;9.154;2023-04-03T16:18:41;7.20;50.10
8459;DHT22;4266;48.816;9.154;2023-04-03T16:21:07;7.20;49.90
8459;DHT22;4266;48.816;9.154;2023-04-03T16:23:33;7.10;50.50
8459;DHT22;4266;48.816;9.154;2023-04-03T16:25:58;6.90;50.40
8459;DHT22;4266;48.816;9.154;2023-04-03T16:28:24;6.60;50.30
8459;DHT22;4266;48.816;9.154;2023-04-03T16:30:50;6.50;50.10
8459;DHT22;4266;48.816;9.154;2023-04-03T16:33:16;6.30;50.40